sensor_id;sensor_type;location;lat;lon;timestamp;pressure;altitude;pressure_sealevel;temperature;humidity
39443;BME280;25147;52.142;9.960;2024-01-30T00:00:03;101652.88;;;4.38;100.00
39443;BME280;25147;52.142;9.960;2024-01-30T00:02:31;101810.53;;;5.09;100.00
39443;BME280;25147;52.142;9.960;2024-01-30T00:04:58;101557.88;;;3.79;100.00
39443;BME280;25147;52.142;9.960;2024-01-30T00:07:26;101672.88;;;4.42;100.00
39443;BME280;25147;52.142;9.960;2024-01-30T00:09:53;101711.06;;;4.78;100.00
39443;BME280;25147;52.142;9.960;2024-01-30T00:12:20;101526.44;;;3.67;100.00
39443;BME280;25147;52.142;9.960;2024-01-30T00:14:47;101844.03;;;5.30;100.00
39443;BME280;25147;52.142;9.960;2024-01-30T00:17:14;101733.66;;;4.82;100.00
39443;BME280;25147;52.142;9.960;2024-01-30T00:19:40;101572.81;;;3.88;100.00
39443;BME280;25147;52.142;9.960;2024-01-30T00:22:07;101648.28;;;4.28;100.00
39443;BME280;25147;52.142;9.960;2024-01-30T00:24:35;101615.66;;;4.06;100.00
39443;BME280;25147;52.142;9.960;2024-01-30T00:27:02;101747.56;;;4.84;100.00
39443;BME280;25147;52.142;9.960;2024-01-30T00:29:29;101476.69;;;3.20;100.00
39443;BME280;25147;52.142;9.960;2024-01-30T00:31:59;101689.81;;;4.31;100.00
39443;BME280;25147;52.142;9.960;2024-01-30T00:34:25;101727.19;;;4.66;100.00
39443;BME280;25147;52.142;9.960;2024-01-30T00:36:52;101760.28;;;4.75;100.00
39443;BME280;25147;52.142;9.960;2024-01-30T00:39:19;101642.44;;;4.06;100.00
39443;BME280;25147;52.142;9.960;2024-01-30T00:41:47;101825.34;;;5.11;100.00
39443;BME280;25147;52.142;9.960;2024-01-30T00:44:14;101510.53;;;3.28;100.00
39443;BME280;25147;52.142;9.960;2024-01-30T00:46:41;101520.22;;;3.33;100.00
39443;BME280;25147;52.142;9.960;2024-01-30T00:49:08;101513.25;;;3.31;100.00
39443;BME280;25147;52.142;9.960;2024-01-30T00:51:37;101550.84;;;3.47;100.00
39443;BME280;25147;52.142;9.960;2024-01-30T00:54:04;101852.13;;;5.10;100.00
39443;BME280;25147;52.142;9.960;2024-01-30T00:56:31;101827.88;;;5.10;100.00
39443;BME280;25147;52.142;9.960;2024-01-30T00:59:00;101651.50;;;3.92;100.00
39443;BME280;25147;52.142;9.960;2024-01-30T01:01:26;101574.56;;;3.60;100.00
39443;BME280;25147;52.142;9.960;2024-01-30T01:03:54;101651.78;;;4.01;100.00
39443;BME280;25147;52.142;9.960;2024-01-30T01:06:21;101740.72;;;4.57;100.00
39443;BME280;25147;52.142;9.960;2024-01-30T01:08:48;101637.19;;;4.05;100.00
39443;BME280;25147;52.142;9.960;2024-01-30T01:11:15;101548.25;;;3.47;100.00
39443;BME280;25147;52.142;9.960;2024-01-30T01:13:42;101652.41;;;4.22;100.00
39443;BME280;25147;52.142;9.960;2024-01-30T01:16:11;101662.22;;;4.33;100.00
39443;BME280;25147;52.142;9.960;2024-01-30T01:18:37;101510.44;;;3.52;100.00
39443;BME280;25147;52.142;9.960;2024-01-30T01:21:05;101569.94;;;3.79;100.00
39443;BME280;25147;52.142;9.960;2024-01-30T01:23:32;101538.03;;;3.80;100.00
39443;BME280;25147;52.142;9.960;2024-01-30T01:25:58;101546.91;;;3.88;100.00
39443;BME280;25147;52.142;9.960;2024-01-30T01:28:26;101724.56;;;4.96;100.00
39443;BME280;25147;52.142;9.960;2024-01-30T01:30:53;101840.69;;;5.66;100.00
39443;BME280;25147;52.142;9.960;2024-01-30T01:33:25;101827.34;;;5.52;100.00
39443;BME280;25147;52.142;9.960;2024-01-30T01:35:52;101636.88;;;4.53;100.00
39443;BME280;25147;52.142;9.960;2024-01-30T01:38:20;101735.25;;;5.07;100.00
39443;BME280;25147;52.142;9.960;2024-01-30T01:40:46;101718.38;;;4.91;100.00
39443;BME280;25147;52.142;9.960;2024-01-30T01:43:13;101646.56;;;4.58;100.00
39443;BME280;25147;52.142;9.960;2024-01-30T01:45:41;101722.00;;;4.98;100.00
39443;BME280;25147;52.142;9.960;2024-01-30T01:48:08;101692.72;;;4.72;100.00
39443;BME280;25147;52.142;9.960;2024-01-30T01:50:38;101835.59;;;5.69;100.00
39443;BME280;25147;52.142;9.960;2024-01-30T01:53:07;101605.72;;;4.21;100.00
39443;BME280;25147;52.142;9.960;2024-01-30T01:55:35;101830.28;;;5.66;100.00
39443;BME280;25147;52.142;9.960;2024-01-30T01:58:02;101841.53;;;5.65;100.00
39443;BME280;25147;52.142;9.960;2024-01-30T02:00:30;101609.28;;;4.25;100.00
39443;BME280;25147;52.142;9.960;2024-01-30T02:02:57;101820.66;;;5.61;100.00
39443;BME280;25147;52.142;9.960;2024-01-30T02:05:24;101472.66;;;3.58;100.00
39443;BME280;25147;52.142;9.960;2024-01-30T02:07:52;101638.78;;;4.58;100.00
39443;BME280;25147;52.142;9.960;2024-01-30T02:10:20;101517.66;;;3.92;100.00
39443;BME280;25147;52.142;9.960;2024-01-30T02:12:48;101495.78;;;3.82;100.00
39443;BME280;25147;52.142;9.960;2024-01-30T02:15:15;101534.06;;;3.93;100.00
39443;BME280;25147;52.142;9.960;2024-01-30T02:17:42;101831.09;;;5.63;100.00
39443;BME280;25147;52.142;9.960;2024-01-30T02:20:09;101811.16;;;5.62;100.00
39443;BME280;25147;52.142;9.960;2024-01-30T02:22:39;101816.31;;;5.60;100.00
39443;BME280;25147;52.142;9.960;2024-01-30T02:25:07;101533.88;;;3.85;100.00
39443;BME280;25147;52.142;9.960;2024-01-30T02:27:35;101803.97;;;5.52;100.00
39443;BME280;25147;52.142;9.960;2024-01-30T02:30:02;101689.59;;;4.83;100.00
39443;BME280;25147;52.142;9.960;2024-01-30T02:32:28;101670.41;;;4.77;100.00
39443;BME280;25147;52.142;9.960;2024-01-30T02:34:55;101600.94;;;4.35;100.00
39443;BME280;25147;52.142;9.960;2024-01-30T02:37:23;101672.19;;;4.79;100.00
39443;BME280;25147;52.142;9.960;2024-01-30T02:39:51;101615.09;;;4.46;100.00
39443;BME280;25147;52.142;9.960;2024-01-30T02:42:18;101493.63;;;3.68;100.00
39443;BME280;25147;52.142;9.960;2024-01-30T02:44:45;101589.75;;;4.36;100.00
39443;BME280;25147;52.142;9.960;2024-01-30T02:47:12;101481.97;;;3.82;100.00
39443;BME280;25147;52.142;9.960;2024-01-30T02:49:40;101606.75;;;4.58;100.00
39443;BME280;25147;52.142;9.960;2024-01-30T02:52:07;101672.63;;;4.95;100.00
39443;BME280;25147;52.142;9.960;2024-01-30T02:54:34;101723.72;;;5.29;100.00
39443;BME280;25147;52.142;9.960;2024-01-30T02:57:02;101795.47;;;5.59;100.00
39443;BME280;25147;52.142;9.960;2024-01-30T02:59:29;101652.63;;;4.91;100.00
39443;BME280;25147;52.142;9.960;2024-01-30T03:01:58;101687.78;;;5.11;100.00
39443;BME280;25147;52.142;9.960;2024-01-30T03:04:25;101764.19;;;5.54;100.00
39443;BME280;25147;52.142;9.960;2024-01-30T03:06:52;101570.22;;;4.49;100.00
39443;BME280;25147;52.142;9.960;2024-01-30T03:09:19;101672.59;;;4.93;100.00
39443;BME280;25147;52.142;9.960;2024-01-30T03:11:47;101498.25;;;4.08;100.00
39443;BME280;25147;52.142;9.960;2024-01-30T03:14:15;101768.69;;;5.61;100.00
39443;BME280;25147;52.142;9.960;2024-01-30T03:16:42;101665.16;;;5.07;100.00
39443;BME280;25147;52.142;9.960;2024-01-30T03:19:09;101448.25;;;3.80;100.00
39443;BME280;25147;52.142;9.960;2024-01-30T03:21:36;101771.22;;;5.58;100.00
39443;BME280;25147;52.142;9.960;2024-01-30T03:24:03;101677.41;;;5.13;100.00
39443;BME280;25147;52.142;9.960;2024-01-30T03:26:30;101673.13;;;5.13;100.00
39443;BME280;25147;52.142;9.960;2024-01-30T03:28:57;101725.88;;;5.46;100.00
39443;BME280;25147;52.142;9.960;2024-01-30T03:31:25;101759.94;;;5.56;100.00
39443;BME280;25147;52.142;9.960;2024-01-30T03:33:53;101763.38;;;5.57;100.00
39443;BME280;25147;52.142;9.960;2024-01-30T03:36:19;101723.25;;;5.44;100.00
39443;BME280;25147;52.142;9.960;2024-01-30T03:38:46;101690.69;;;5.23;100.00
39443;BME280;25147;52.142;9.960;2024-01-30T03:41:13;101669.75;;;5.17;100.00
39443;BME280;25147;52.142;9.960;2024-01-30T03:43:40;101717.13;;;5.42;100.00
39443;BME280;25147;52.142;9.960;2024-01-30T03:46:07;101716.13;;;5.37;100.00
39443;BME280;25147;52.142;9.960;2024-01-30T03:48:35;101739.16;;;5.56;100.00
39443;BME280;25147;52.142;9.960;2024-01-30T03:51:03;101422.16;;;3.73;100.00
39443;BME280;25147;52.142;9.960;2024-01-30T03:53:29;101732.31;;;5.60;100.00
39443;BME280;25147;52.142;9.960;2024-01-30T03:55:56;101692.84;;;5.40;100.00
39443;BME280;25147;52.142;9.960;2024-01-30T03:58:23;101547.78;;;4.51;100.00
39443;BME280;25147;52.142;9.960;2024-01-30T04:00:50;101665.50;;;5.21;100.00
39443;BME280;25147;52.142;9.960;2024-01-30T04:03:17;101737.69;;;5.68;100.00
39443;BME280;25147;52.142;9.960;2024-01-30T04:05:45;101463.31;;;3.94;100.00
39443;BME280;25147;52.142;9.960;2024-01-30T04:08:12;101447.88;;;3.98;100.00
39443;BME280;25147;52.142;9.960;2024-01-30T04:10:40;101710.97;;;5.38;100.00
39443;BME280;25147;52.142;9.960;2024-01-30T04:13:06;101755.75;;;5.63;100.00
39443;BME280;25147;52.142;9.960;2024-01-30T04:15:33;101726.09;;;5.55;100.00
39443;BME280;25147;52.142;9.960;2024-01-30T04:18:01;101618.09;;;4.93;100.00
39443;BME280;25147;52.142;9.960;2024-01-30T04:20:29;101456.94;;;3.82;100.00
39443;BME280;25147;52.142;9.960;2024-01-30T04:22:58;101489.22;;;3.94;100.00
39443;BME280;25147;52.142;9.960;2024-01-30T04:25:34;101725.09;;;5.48;100.00
39443;BME280;25147;52.142;9.960;2024-01-30T04:28:01;101449.97;;;3.80;100.00
39443;BME280;25147;52.142;9.960;2024-01-30T04:30:28;101758.69;;;5.42;100.00
39443;BME280;25147;52.142;9.960;2024-01-30T04:32:55;101636.31;;;4.95;100.00
39443;BME280;25147;52.142;9.960;2024-01-30T04:35:22;101716.16;;;5.38;100.00
39443;BME280;25147;52.142;9.960;2024-01-30T04:37:52;101465.72;;;3.88;100.00
39443;BME280;25147;52.142;9.960;2024-01-30T04:40:20;101542.00;;;4.28;100.00
39443;BME280;25147;52.142;9.960;2024-01-30T04:42:47;101722.13;;;5.34;100.00
39443;BME280;25147;52.142;9.960;2024-01-30T04:45:14;101728.88;;;5.28;100.00
39443;BME280;25147;52.142;9.960;2024-01-30T04:47:41;101488.81;;;3.80;100.00
39443;BME280;25147;52.142;9.960;2024-01-30T04:50:08;101750.47;;;5.25;100.00
39443;BME280;25147;52.142;9.960;2024-01-30T04:52:35;101738.25;;;5.22;100.00
39443;BME280;25147;52.142;9.960;2024-01-30T04:55:02;101448.34;;;3.53;100.00
39443;BME280;25147;52.142;9.960;2024-01-30T04:57:31;101651.41;;;4.48;100.00
39443;BME280;25147;52.142;9.960;2024-01-30T04:59:59;101718.88;;;5.10;100.00
39443;BME280;25147;52.142;9.960;2024-01-30T05:02:26;101453.03;;;3.36;100.00
39443;BME280;25147;52.142;9.960;2024-01-30T05:04:53;101642.53;;;4.39;100.00
39443;BME280;25147;52.142;9.960;2024-01-30T05:07:20;101557.78;;;4.07;100.00
39443;BME280;25147;52.142;9.960;2024-01-30T05:09:47;101404.09;;;3.15;100.00
39443;BME280;25147;52.142;9.960;2024-01-30T05:12:14;101604.19;;;4.28;100.00
39443;BME280;25147;52.142;9.960;2024-01-30T05:14:42;101425.88;;;3.22;100.00
39443;BME280;25147;52.142;9.960;2024-01-30T05:17:09;101466.16;;;3.42;100.00
39443;BME280;25147;52.142;9.960;2024-01-30T05:19:38;101733.84;;;4.88;100.00
39443;BME280;25147;52.142;9.960;2024-01-30T05:22:05;101450.53;;;3.11;100.00
39443;BME280;25147;52.142;9.960;2024-01-30T05:24:31;101636.56;;;4.12;100.00
39443;BME280;25147;52.142;9.960;2024-01-30T05:26:58;101539.88;;;3.55;100.00
39443;BME280;25147;52.142;9.960;2024-01-30T05:29:25;101463.06;;;2.98;100.00
39443;BME280;25147;52.142;9.960;2024-01-30T05:31:54;101438.28;;;2.78;100.00
39443;BME280;25147;52.142;9.960;2024-01-30T05:34:21;101548.16;;;3.44;100.00
39443;BME280;25147;52.142;9.960;2024-01-30T05:36:47;101566.84;;;3.35;100.00
39443;BME280;25147;52.142;9.960;2024-01-30T05:39:14;101722.16;;;4.42;100.00
39443;BME280;25147;52.142;9.960;2024-01-30T05:41:41;101726.53;;;4.45;100.00
39443;BME280;25147;52.142;9.960;2024-01-30T05:44:08;101650.75;;;3.96;100.00
39443;BME280;25147;52.142;9.960;2024-01-30T05:46:35;101493.13;;;2.95;100.00
39443;BME280;25147;52.142;9.960;2024-01-30T05:49:03;101733.28;;;4.39;100.00
39443;BME280;25147;52.142;9.960;2024-01-30T05:51:30;101423.16;;;2.63;100.00
39443;BME280;25147;52.142;9.960;2024-01-30T05:53:57;101689.22;;;4.11;100.00
39443;BME280;25147;52.142;9.960;2024-01-30T05:56:24;101628.13;;;3.90;100.00
39443;BME280;25147;52.142;9.960;2024-01-30T05:58:51;101572.00;;;3.62;100.00
39443;BME280;25147;52.142;9.960;2024-01-30T06:01:18;101623.44;;;3.78;100.00
39443;BME280;25147;52.142;9.960;2024-01-30T06:03:45;101699.56;;;4.39;100.00
39443;BME280;25147;52.142;9.960;2024-01-30T06:06:13;101528.81;;;3.32;100.00
39443;BME280;25147;52.142;9.960;2024-01-30T06:08:40;101478.91;;;3.09;100.00
39443;BME280;25147;52.142;9.960;2024-01-30T06:11:10;101620.69;;;4.01;100.00
39443;BME280;25147;52.142;9.960;2024-01-30T06:13:40;101594.38;;;3.87;100.00
39443;BME280;25147;52.142;9.960;2024-01-30T06:16:09;101650.16;;;4.05;100.00
39443;BME280;25147;52.142;9.960;2024-01-30T06:18:37;101530.31;;;3.53;100.00
39443;BME280;25147;52.142;9.960;2024-01-30T06:21:04;101650.63;;;4.20;100.00
39443;BME280;25147;52.142;9.960;2024-01-30T06:23:32;101714.75;;;4.56;100.00
39443;BME280;25147;52.142;9.960;2024-01-30T06:25:59;101641.78;;;4.13;100.00
39443;BME280;25147;52.142;9.960;2024-01-30T06:28:26;101496.84;;;3.30;100.00
39443;BME280;25147;52.142;9.960;2024-01-30T06:30:53;101654.53;;;4.06;100.00
39443;BME280;25147;52.142;9.960;2024-01-30T06:33:20;101546.59;;;3.49;100.00
39443;BME280;25147;52.142;9.960;2024-01-30T06:35:47;101549.91;;;3.45;100.00
39443;BME280;25147;52.142;9.960;2024-01-30T06:38:14;101535.94;;;3.39;100.00
39443;BME280;25147;52.142;9.960;2024-01-30T06:40:42;101707.53;;;4.46;100.00
39443;BME280;25147;52.142;9.960;2024-01-30T06:43:09;101709.38;;;4.48;100.00
39443;BME280;25147;52.142;9.960;2024-01-30T06:45:36;101692.06;;;4.49;100.00
39443;BME280;25147;52.142;9.960;2024-01-30T06:48:04;101647.19;;;4.21;100.00
39443;BME280;25147;52.142;9.960;2024-01-30T06:50:31;101645.81;;;4.32;100.00
39443;BME280;25147;52.142;9.960;2024-01-30T06:52:58;101417.50;;;3.02;100.00
39443;BME280;25147;52.142;9.960;2024-01-30T06:55:24;101716.22;;;4.76;100.00
39443;BME280;25147;52.142;9.960;2024-01-30T06:57:53;101696.19;;;4.71;100.00
39443;BME280;25147;52.142;9.960;2024-01-30T07:00:21;101404.44;;;2.99;100.00
39443;BME280;25147;52.142;9.960;2024-01-30T07:02:49;101709.97;;;4.70;100.00
39443;BME280;25147;52.142;9.960;2024-01-30T07:05:16;101716.00;;;4.69;100.00
39443;BME280;25147;52.142;9.960;2024-01-30T07:07:43;101408.75;;;2.98;100.00
39443;BME280;25147;52.142;9.960;2024-01-30T07:10:10;101711.63;;;4.66;100.00
39443;BME280;25147;52.142;9.960;2024-01-30T07:12:37;101589.69;;;4.04;100.00
39443;BME280;25147;52.142;9.960;2024-01-30T07:15:06;101610.41;;;4.04;100.00
39443;BME280;25147;52.142;9.960;2024-01-30T07:17:34;101455.44;;;3.03;100.00
39443;BME280;25147;52.142;9.960;2024-01-30T07:20:05;101504.47;;;3.54;100.00
39443;BME280;25147;52.142;9.960;2024-01-30T07:22:35;101402.38;;;2.87;100.00
39443;BME280;25147;52.142;9.960;2024-01-30T07:25:09;101402.41;;;2.89;100.00
39443;BME280;25147;52.142;9.960;2024-01-30T07:27:38;101409.69;;;3.00;100.00
39443;BME280;25147;52.142;9.960;2024-01-30T07:30:29;101590.53;;;4.03;100.00
39443;BME280;25147;52.142;9.960;2024-01-30T07:33:00;101515.22;;;3.67;100.00
39443;BME280;25147;52.142;9.960;2024-01-30T07:35:43;101590.13;;;3.89;100.00
39443;BME280;25147;52.142;9.960;2024-01-30T07:38:16;101615.22;;;4.20;100.00
39443;BME280;25147;52.142;9.960;2024-01-30T07:41:06;101412.22;;;2.99;100.00
39443;BME280;25147;52.142;9.960;2024-01-30T07:44:10;101572.28;;;4.00;100.00
39443;BME280;25147;52.142;9.960;2024-01-30T07:46:41;101724.19;;;4.82;100.00
39443;BME280;25147;52.142;9.960;2024-01-30T07:49:26;101692.13;;;4.80;100.00
39443;BME280;25147;52.142;9.960;2024-01-30T07:52:11;101402.03;;;3.04;100.00
39443;BME280;25147;52.142;9.960;2024-01-30T07:54:52;101373.41;;;2.99;100.00
39443;BME280;25147;52.142;9.960;2024-01-30T07:57:49;101398.34;;;2.97;100.00
39443;BME280;25147;52.142;9.960;2024-01-30T08:00:27;101703.78;;;4.96;100.00
39443;BME280;25147;52.142;9.960;2024-01-30T08:03:03;101447.47;;;3.53;100.00
39443;BME280;25147;52.142;9.960;2024-01-30T08:05:35;101420.50;;;3.16;100.00
39443;BME280;25147;52.142;9.960;2024-01-30T08:08:26;101416.25;;;3.18;100.00
39443;BME280;25147;52.142;9.960;2024-01-30T08:10:59;101510.03;;;3.97;100.00
39443;BME280;25147;52.142;9.960;2024-01-30T08:13:48;101419.16;;;3.29;100.00
39443;BME280;25147;52.142;9.960;2024-01-30T08:16:21;101701.63;;;5.12;100.00
39443;BME280;25147;52.142;9.960;2024-01-30T08:19:19;101401.72;;;3.23;100.00
39443;BME280;25147;52.142;9.960;2024-01-30T08:21:58;101404.72;;;3.37;100.00
39443;BME280;25147;52.142;9.960;2024-01-30T08:24:31;101623.59;;;4.72;100.00
39443;BME280;25147;52.142;9.960;2024-01-30T08:27:02;101593.72;;;4.55;100.00
39443;BME280;25147;52.142;9.960;2024-01-30T08:29:31;101625.97;;;4.98;100.00
39443;BME280;25147;52.142;9.960;2024-01-30T08:32:00;101428.38;;;3.79;100.00
39443;BME280;25147;52.142;9.960;2024-01-30T08:34:41;101392.66;;;3.68;100.00
39443;BME280;25147;52.142;9.960;2024-01-30T08:37:16;101596.47;;;4.93;100.00
39443;BME280;25147;52.142;9.960;2024-01-30T08:39:52;101511.59;;;4.55;100.00
39443;BME280;25147;52.142;9.960;2024-01-30T08:42:19;101518.00;;;4.68;100.00
39443;BME280;25147;52.142;9.960;2024-01-30T08:44:48;101382.25;;;3.98;100.00
39443;BME280;25147;52.142;9.960;2024-01-30T08:47:15;101714.88;;;5.91;100.00
39443;BME280;25147;52.142;9.960;2024-01-30T08:49:45;101616.53;;;5.35;100.00
39443;BME280;25147;52.142;9.960;2024-01-30T08:52:12;101539.78;;;5.10;100.00
39443;BME280;25147;52.142;9.960;2024-01-30T08:54:39;101595.13;;;5.45;100.00
39443;BME280;25147;52.142;9.960;2024-01-30T08:57:07;101555.72;;;5.25;100.00
39443;BME280;25147;52.142;9.960;2024-01-30T08:59:34;101706.81;;;6.15;100.00
39443;BME280;25147;52.142;9.960;2024-01-30T09:02:01;101425.22;;;4.58;100.00
39443;BME280;25147;52.142;9.960;2024-01-30T09:04:29;101456.38;;;4.59;100.00
39443;BME280;25147;52.142;9.960;2024-01-30T09:06:58;101595.59;;;5.65;100.00
39443;BME280;25147;52.142;9.960;2024-01-30T09:09:25;101531.44;;;5.23;100.00
39443;BME280;25147;52.142;9.960;2024-01-30T09:11:52;101521.16;;;5.28;100.00
39443;BME280;25147;52.142;9.960;2024-01-30T09:14:19;101527.31;;;5.31;100.00
39443;BME280;25147;52.142;9.960;2024-01-30T09:16:46;101696.91;;;6.38;100.00
39443;BME280;25147;52.142;9.960;2024-01-30T09:19:14;101577.50;;;5.68;100.00
39443;BME280;25147;52.142;9.960;2024-01-30T09:21:41;101707.63;;;6.53;100.00
39443;BME280;25147;52.142;9.960;2024-01-30T09:24:10;101653.13;;;6.17;100.00
39443;BME280;25147;52.142;9.960;2024-01-30T09:26:36;101685.75;;;6.45;100.00
39443;BME280;25147;52.142;9.960;2024-01-30T09:29:03;101650.78;;;6.31;100.00
39443;BME280;25147;52.142;9.960;2024-01-30T09:31:30;101601.47;;;5.94;100.00
39443;BME280;25147;52.142;9.960;2024-01-30T09:33:57;101414.28;;;5.08;100.00
39443;BME280;25147;52.142;9.960;2024-01-30T09:36:24;101693.31;;;6.75;100.00
39443;BME280;25147;52.142;9.960;2024-01-30T09:38:51;101605.66;;;6.29;100.00
39443;BME280;25147;52.142;9.960;2024-01-30T09:41:23;101576.72;;;6.12;100.00
39443;BME280;25147;52.142;9.960;2024-01-30T09:43:51;101607.44;;;6.30;100.00
39443;BME280;25147;52.142;9.960;2024-01-30T09:46:21;101579.66;;;6.27;100.00
39443;BME280;25147;52.142;9.960;2024-01-30T09:48:50;101623.34;;;6.45;100.00
39443;BME280;25147;52.142;9.960;2024-01-30T09:51:17;101410.69;;;5.42;100.00
39443;BME280;25147;52.142;9.960;2024-01-30T09:53:45;101522.16;;;6.13;100.00
39443;BME280;25147;52.142;9.960;2024-01-30T09:56:13;101518.69;;;6.14;100.00
39443;BME280;25147;52.142;9.960;2024-01-30T09:58:42;101591.38;;;6.51;100.00
39443;BME280;25147;52.142;9.960;2024-01-30T10:01:08;101597.00;;;6.72;100.00
39443;BME280;25147;52.142;9.960;2024-01-30T10:03:36;101611.97;;;6.86;100.00
39443;BME280;25147;52.142;9.960;2024-01-30T10:06:03;101399.94;;;5.66;100.00
39443;BME280;25147;52.142;9.960;2024-01-30T10:08:33;101548.84;;;6.49;100.00
39443;BME280;25147;52.142;9.960;2024-01-30T10:11:01;101548.19;;;6.60;100.00
39443;BME280;25147;52.142;9.960;2024-01-30T10:13:29;101390.50;;;5.71;100.00
39443;BME280;25147;52.142;9.960;2024-01-30T10:15:57;101595.53;;;6.87;100.00
39443;BME280;25147;52.142;9.960;2024-01-30T10:18:24;101710.41;;;7.54;100.00
39443;BME280;25147;52.142;9.960;2024-01-30T10:20:57;101430.69;;;5.89;100.00
39443;BME280;25147;52.142;9.960;2024-01-30T10:26:07;101437.09;;;6.06;100.00
39443;BME280;25147;52.142;9.960;2024-01-30T10:28:34;101428.38;;;6.04;100.00
39443;BME280;25147;52.142;9.960;2024-01-30T10:31:03;101615.41;;;7.33;100.00
39443;BME280;25147;52.142;9.960;2024-01-30T10:33:30;101614.50;;;7.31;100.00
39443;BME280;25147;52.142;9.960;2024-01-30T10:36:06;101372.75;;;5.94;100.00
39443;BME280;25147;52.142;9.960;2024-01-30T10:38:42;101414.59;;;6.08;100.00
39443;BME280;25147;52.142;9.960;2024-01-30T10:41:13;101533.28;;;7.02;100.00
39443;BME280;25147;52.142;9.960;2024-01-30T10:43:48;101607.91;;;7.53;100.00
39443;BME280;25147;52.142;9.960;2024-01-30T10:46:20;101571.88;;;7.26;100.00
39443;BME280;25147;52.142;9.960;2024-01-30T10:48:54;101662.41;;;7.94;100.00
39443;BME280;25147;52.142;9.960;2024-01-30T10:51:31;101665.03;;;7.97;100.00
39443;BME280;25147;52.142;9.960;2024-01-30T10:54:02;101621.34;;;7.81;100.00
39443;BME280;25147;52.142;9.960;2024-01-30T10:56:32;101363.03;;;6.31;100.00
39443;BME280;25147;52.142;9.960;2024-01-30T10:59:03;101640.88;;;8.09;100.00
39443;BME280;25147;52.142;9.960;2024-01-30T11:01:32;101649.53;;;8.07;100.00
39443;BME280;25147;52.142;9.960;2024-01-30T11:04:24;101387.53;;;6.47;100.00
39443;BME280;25147;52.142;9.960;2024-01-30T11:06:58;101467.53;;;7.15;100.00
39443;BME280;25147;52.142;9.960;2024-01-30T11:09:29;101469.34;;;7.19;100.00
39443;BME280;25147;52.142;9.960;2024-01-30T11:12:28;101455.25;;;7.05;100.00
39443;BME280;25147;52.142;9.960;2024-01-30T11:15:24;101565.00;;;7.91;100.00
39443;BME280;25147;52.142;9.960;2024-01-30T11:17:56;101384.59;;;6.80;100.00
39443;BME280;25147;52.142;9.960;2024-01-30T11:20:29;101517.84;;;7.72;100.00
39443;BME280;25147;52.142;9.960;2024-01-30T11:22:58;101477.50;;;7.44;100.00
39443;BME280;25147;52.142;9.960;2024-01-30T11:25:32;101667.53;;;8.49;100.00
39443;BME280;25147;52.142;9.960;2024-01-30T11:28:13;101456.63;;;7.42;100.00
39443;BME280;25147;52.142;9.960;2024-01-30T11:30:42;101467.13;;;7.47;100.00
39443;BME280;25147;52.142;9.960;2024-01-30T11:33:32;101563.53;;;8.13;100.00
39443;BME280;25147;52.142;9.960;2024-01-30T11:36:12;101569.75;;;8.24;100.00
39443;BME280;25147;52.142;9.960;2024-01-30T11:38:50;101466.47;;;7.63;100.00
39443;BME280;25147;52.142;9.960;2024-01-30T11:41:17;101482.13;;;7.67;100.00
39443;BME280;25147;52.142;9.960;2024-01-30T11:43:56;101364.28;;;7.17;100.00
39443;BME280;25147;52.142;9.960;2024-01-30T11:46:33;101626.06;;;8.77;100.00
39443;BME280;25147;52.142;9.960;2024-01-30T11:49:06;101634.78;;;8.79;100.00
39443;BME280;25147;52.142;9.960;2024-01-30T11:51:41;101643.53;;;8.82;100.00
39443;BME280;25147;52.142;9.960;2024-01-30T11:54:12;101643.56;;;8.84;99.97
39443;BME280;25147;52.142;9.960;2024-01-30T11:56:40;101330.41;;;7.17;99.71
39443;BME280;25147;52.142;9.960;2024-01-30T11:59:07;101507.19;;;8.27;99.50
39443;BME280;25147;52.142;9.960;2024-01-30T12:01:46;101309.34;;;6.97;98.95
39443;BME280;25147;52.142;9.960;2024-01-30T12:04:16;101602.66;;;8.86;99.30
39443;BME280;25147;52.142;9.960;2024-01-30T12:06:43;101381.16;;;7.47;98.85
39443;BME280;25147;52.142;9.960;2024-01-30T12:09:11;101453.63;;;7.79;98.97
39443;BME280;25147;52.142;9.960;2024-01-30T12:11:45;101564.09;;;8.60;99.10
39443;BME280;25147;52.142;9.960;2024-01-30T12:14:12;101478.38;;;8.16;99.24
39443;BME280;25147;52.142;9.960;2024-01-30T12:16:40;101590.47;;;8.85;99.61
39443;BME280;25147;52.142;9.960;2024-01-30T12:19:08;101319.09;;;7.14;99.69
39443;BME280;25147;52.142;9.960;2024-01-30T12:21:38;101435.38;;;7.80;100.00
39443;BME280;25147;52.142;9.960;2024-01-30T12:24:10;101406.78;;;7.87;100.00
39443;BME280;25147;52.142;9.960;2024-01-30T12:26:46;101434.78;;;8.04;100.00
39443;BME280;25147;52.142;9.960;2024-01-30T12:29:20;101284.41;;;7.18;99.97
39443;BME280;25147;52.142;9.960;2024-01-30T12:31:48;101591.47;;;8.98;100.00
39443;BME280;25147;52.142;9.960;2024-01-30T12:34:23;101595.84;;;9.03;100.00
39443;BME280;25147;52.142;9.960;2024-01-30T12:36:58;101593.25;;;9.05;100.00
39443;BME280;25147;52.142;9.960;2024-01-30T12:39:38;101292.22;;;7.18;99.78
39443;BME280;25147;52.142;9.960;2024-01-30T12:42:59;101597.66;;;9.11;99.81
39443;BME280;25147;52.142;9.960;2024-01-30T12:45:30;101456.75;;;8.27;99.31
39443;BME280;25147;52.142;9.960;2024-01-30T12:47:57;101592.44;;;9.11;99.73
39443;BME280;25147;52.142;9.960;2024-01-30T12:50:26;101341.28;;;7.56;99.66
39443;BME280;25147;52.142;9.960;2024-01-30T12:52:56;101608.22;;;9.20;99.96
39443;BME280;25147;52.142;9.960;2024-01-30T12:55:34;101538.97;;;8.70;99.63
39443;BME280;25147;52.142;9.960;2024-01-30T12:58:05;101298.47;;;7.31;99.22
39443;BME280;25147;52.142;9.960;2024-01-30T13:00:32;101450.63;;;8.26;99.72
39443;BME280;25147;52.142;9.960;2024-01-30T13:03:01;101346.63;;;7.68;99.51
39443;BME280;25147;52.142;9.960;2024-01-30T13:05:32;101488.41;;;8.60;99.72